sensor_id;sensor_type;location;lat;lon;timestamp;pressure;altitude;pressure_sealevel;temperature;humidity
12349;BME280;5974;42.710;27.258;2023-12-14T00:01:35;99446.03;;;9.37;100.00
12349;BME280;5974;42.710;27.258;2023-12-14T00:04:05;99445.31;;;9.33;100.00
12349;BME280;5974;42.710;27.258;2023-12-14T00:06:33;99435.41;;;9.22;100.00
12349;BME280;5974;42.710;27.258;2023-12-14T00:09:00;99446.19;;;9.34;100.00
12349;BME280;5974;42.710;27.258;2023-12-14T00:11:26;99441.16;;;9.29;100.00
12349;BME280;5974;42.710;27.258;2023-12-14T00:13:53;99448.59;;;9.38;100.00
12349;BME280;5974;42.710;27.258;2023-12-14T00:16:20;99442.81;;;9.32;100.00
12349;BME280;5974;42.710;27.258;2023-12-14T00:18:47;99447.16;;;9.50;100.00
12349;BME280;5974;42.710;27.258;2023-12-14T00:21:13;99445.88;;;9.40;100.00
12349;BME280;5974;42.710;27.258;2023-12-14T00:23:42;99438.06;;;9.75;100.00
12349;BME280;5974;42.710;27.258;2023-12-14T00:26:08;99431.06;;;9.59;100.00
12349;BME280;5974;42.710;27.258;2023-12-14T00:28:35;99437.56;;;9.50;100.00
12349;BME280;5974;42.710;27.258;2023-12-14T00:31:02;99452.13;;;9.73;100.00
12349;BME280;5974;42.710;27.258;2023-12-14T00:33:29;99444.13;;;9.59;100.00
12349;BME280;5974;42.710;27.258;2023-12-14T00:35:55;99451.00;;;9.60;100.00
12349;BME280;5974;42.710;27.258;2023-12-14T00:38:22;99460.75;;;9.75;100.00
12349;BME280;5974;42.710;27.258;2023-12-14T00:40:50;99454.41;;;9.62;100.00
12349;BME280;5974;42.710;27.258;2023-12-14T00:43:17;99463.53;;;9.53;100.00
12349;BME280;5974;42.710;27.258;2023-12-14T00:45:44;99460.78;;;9.56;100.00
12349;BME280;5974;42.710;27.258;2023-12-14T00:48:11;99453.75;;;9.57;100.00
12349;BME280;5974;42.710;27.258;2023-12-14T00:50:38;99452.19;;;10.07;100.00
12349;BME280;5974;42.710;27.258;2023-12-14T00:53:04;99442.66;;;9.89;100.00
12349;BME280;5974;42.710;27.258;2023-12-14T00:55:31;99437.28;;;9.56;100.00
12349;BME280;5974;42.710;27.258;2023-12-14T00:57:59;99447.56;;;9.95;100.00
12349;BME280;5974;42.710;27.258;2023-12-14T01:00:26;99448.41;;;9.96;100.00
12349;BME280;5974;42.710;27.258;2023-12-14T01:02:53;99447.56;;;9.78;100.00
12349;BME280;5974;42.710;27.258;2023-12-14T01:05:19;99449.03;;;9.65;100.00
12349;BME280;5974;42.710;27.258;2023-12-14T01:07:46;99441.50;;;9.59;100.00
12349;BME280;5974;42.710;27.258;2023-12-14T01:10:13;99453.69;;;9.94;100.00
12349;BME280;5974;42.710;27.258;2023-12-14T01:12:40;99447.72;;;9.92;100.00
12349;BME280;5974;42.710;27.258;2023-12-14T01:15:09;99446.69;;;10.48;100.00
12349;BME280;5974;42.710;27.258;2023-12-14T01:17:36;99437.31;;;10.44;100.00
12349;BME280;5974;42.710;27.258;2023-12-14T01:20:04;99438.13;;;10.78;100.00
12349;BME280;5974;42.710;27.258;2023-12-14T01:22:32;99426.09;;;10.92;100.00
12349;BME280;5974;42.710;27.258;2023-12-14T01:24:59;99425.19;;;10.25;100.00
12349;BME280;5974;42.710;27.258;2023-12-14T01:27:25;99432.09;;;10.26;100.00
12349;BME280;5974;42.710;27.258;2023-12-14T01:29:52;99422.81;;;9.85;100.00
12349;BME280;5974;42.710;27.258;2023-12-14T01:32:20;99417.22;;;9.57;100.00
12349;BME280;5974;42.710;27.258;2023-12-14T01:34:47;99427.34;;;9.46;100.00
12349;BME280;5974;42.710;27.258;2023-12-14T01:37:14;99428.97;;;9.30;100.00
12349;BME280;5974;42.710;27.258;2023-12-14T01:39:41;99428.00;;;9.13;100.00
12349;BME280;5974;42.710;27.258;2023-12-14T01:42:07;99436.31;;;9.40;100.00
12349;BME280;5974;42.710;27.258;2023-12-14T01:44:34;99431.22;;;9.37;100.00
12349;BME280;5974;42.710;27.258;2023-12-14T01:47:01;99423.47;;;9.36;100.00
12349;BME280;5974;42.710;27.258;2023-12-14T01:49:29;99431.09;;;9.40;100.00
12349;BME280;5974;42.710;27.258;2023-12-14T01:51:56;99424.88;;;9.43;100.00
12349;BME280;5974;42.710;27.258;2023-12-14T01:54:22;99424.16;;;9.58;100.00
12349;BME280;5974;42.710;27.258;2023-12-14T01:56:50;99421.22;;;10.00;100.00
12349;BME280;5974;42.710;27.258;2023-12-14T01:59:17;99427.69;;;10.10;100.00
12349;BME280;5974;42.710;27.258;2023-12-14T02:01:45;99420.25;;;10.02;100.00
12349;BME280;5974;42.710;27.258;2023-12-14T02:04:12;99420.34;;;9.82;100.00
12349;BME280;5974;42.710;27.258;2023-12-14T02:06:41;99412.28;;;9.15;100.00
12349;BME280;5974;42.710;27.258;2023-12-14T02:09:08;99417.41;;;8.79;100.00
12349;BME280;5974;42.710;27.258;2023-12-14T02:11:35;99423.94;;;8.69;100.00
12349;BME280;5974;42.710;27.258;2023-12-14T02:14:05;99426.03;;;8.61;100.00
12349;BME280;5974;42.710;27.258;2023-12-14T02:16:32;99427.44;;;8.68;100.00
12349;BME280;5974;42.710;27.258;2023-12-14T02:18:59;99417.22;;;8.63;100.00
12349;BME280;5974;42.710;27.258;2023-12-14T02:21:26;99415.59;;;9.18;100.00
12349;BME280;5974;42.710;27.258;2023-12-14T02:23:54;99419.63;;;9.61;100.00
12349;BME280;5974;42.710;27.258;2023-12-14T02:26:20;99418.03;;;9.59;100.00
12349;BME280;5974;42.710;27.258;2023-12-14T02:28:47;99405.69;;;9.62;100.00
12349;BME280;5974;42.710;27.258;2023-12-14T02:31:14;99410.75;;;9.65;100.00
12349;BME280;5974;42.710;27.258;2023-12-14T02:33:41;99394.78;;;9.36;100.00
12349;BME280;5974;42.710;27.258;2023-12-14T02:36:08;99396.84;;;9.10;100.00
12349;BME280;5974;42.710;27.258;2023-12-14T02:38:35;99399.50;;;8.90;100.00
12349;BME280;5974;42.710;27.258;2023-12-14T02:41:03;99404.84;;;8.87;100.00
12349;BME280;5974;42.710;27.258;2023-12-14T02:43:30;99406.63;;;8.87;100.00
12349;BME280;5974;42.710;27.258;2023-12-14T02:45:57;99402.94;;;8.72;100.00
12349;BME280;5974;42.710;27.258;2023-12-14T02:48:27;99398.00;;;8.66;100.00
12349;BME280;5974;42.710;27.258;2023-12-14T02:50:54;99402.69;;;8.97;100.00
12349;BME280;5974;42.710;27.258;2023-12-14T02:53:21;99404.44;;;9.34;100.00
12349;BME280;5974;42.710;27.258;2023-12-14T02:55:48;99410.84;;;9.08;100.00
12349;BME280;5974;42.710;27.258;2023-12-14T02:58:18;99405.88;;;8.64;100.00
12349;BME280;5974;42.710;27.258;2023-12-14T03:00:45;99401.09;;;8.35;100.00
12349;BME280;5974;42.710;27.258;2023-12-14T03:03:12;99408.75;;;8.18;100.00
12349;BME280;5974;42.710;27.258;2023-12-14T03:05:39;99405.09;;;8.22;100.00
12349;BME280;5974;42.710;27.258;2023-12-14T03:08:05;99409.19;;;8.68;100.00
12349;BME280;5974;42.710;27.258;2023-12-14T03:10:32;99421.94;;;8.35;100.00
12349;BME280;5974;42.710;27.258;2023-12-14T03:12:59;99428.63;;;8.21;100.00
12349;BME280;5974;42.710;27.258;2023-12-14T03:15:27;99442.25;;;8.86;100.00
12349;BME280;5974;42.710;27.258;2023-12-14T03:17:54;99443.06;;;8.68;100.00
12349;BME280;5974;42.710;27.258;2023-12-14T03:20:20;99444.59;;;8.74;100.00
12349;BME280;5974;42.710;27.258;2023-12-14T03:22:49;99439.22;;;8.16;100.00
12349;BME280;5974;42.710;27.258;2023-12-14T03:25:16;99435.75;;;8.15;100.00
12349;BME280;5974;42.710;27.258;2023-12-14T03:27:43;99422.50;;;7.80;100.00
12349;BME280;5974;42.710;27.258;2023-12-14T03:30:10;99417.97;;;7.63;100.00
12349;BME280;5974;42.710;27.258;2023-12-14T03:32:38;99438.19;;;7.78;100.00
12349;BME280;5974;42.710;27.258;2023-12-14T03:35:05;99416.78;;;7.92;100.00
12349;BME280;5974;42.710;27.258;2023-12-14T03:37:33;99433.47;;;8.30;100.00
12349;BME280;5974;42.710;27.258;2023-12-14T03:40:00;99446.03;;;7.98;100.00
12349;BME280;5974;42.710;27.258;2023-12-14T03:42:27;99430.84;;;8.30;100.00
12349;BME280;5974;42.710;27.258;2023-12-14T03:44:54;99417.84;;;8.30;100.00
12349;BME280;5974;42.710;27.258;2023-12-14T03:47:21;99418.59;;;8.11;100.00
12349;BME280;5974;42.710;27.258;2023-12-14T03:49:49;99427.34;;;7.67;100.00
12349;BME280;5974;42.710;27.258;2023-12-14T03:52:16;99419.50;;;7.47;100.00
12349;BME280;5974;42.710;27.258;2023-12-14T03:54:42;99428.34;;;7.41;100.00
12349;BME280;5974;42.710;27.258;2023-12-14T03:57:09;99430.78;;;7.46;100.00
12349;BME280;5974;42.710;27.258;2023-12-14T03:59:38;99441.47;;;7.38;100.00
12349;BME280;5974;42.710;27.258;2023-12-14T04:02:05;99441.94;;;7.26;100.00
12349;BME280;5974;42.710;27.258;2023-12-14T04:04:32;99434.47;;;7.19;100.00
12349;BME280;5974;42.710;27.258;2023-12-14T04:07:00;99435.25;;;6.97;100.00
12349;BME280;5974;42.710;27.258;2023-12-14T04:09:27;99449.88;;;7.00;100.00
12349;BME280;5974;42.710;27.258;2023-12-14T04:11:54;99453.44;;;6.97;100.00
12349;BME280;5974;42.710;27.258;2023-12-14T04:14:20;99453.56;;;6.94;100.00
12349;BME280;5974;42.710;27.258;2023-12-14T04:16:47;99461.41;;;6.93;100.00
12349;BME280;5974;42.710;27.258;2023-12-14T04:19:14;99459.03;;;6.87;100.00
12349;BME280;5974;42.710;27.258;2023-12-14T04:21:41;99448.53;;;6.90;100.00
12349;BME280;5974;42.710;27.258;2023-12-14T04:24:09;99455.25;;;6.95;100.00
12349;BME280;5974;42.710;27.258;2023-12-14T04:26:38;99453.56;;;6.94;100.00
12349;BME280;5974;42.710;27.258;2023-12-14T04:29:05;99450.13;;;6.94;100.00
12349;BME280;5974;42.710;27.258;2023-12-14T04:31:33;99433.03;;;6.87;100.00
12349;BME280;5974;42.710;27.258;2023-12-14T04:33:59;99445.47;;;7.02;100.00
12349;BME280;5974;42.710;27.258;2023-12-14T04:36:26;99447.34;;;7.22;100.00
12349;BME280;5974;42.710;27.258;2023-12-14T04:38:53;99442.59;;;7.09;100.00
12349;BME280;5974;42.710;27.258;2023-12-14T04:41:21;99439.16;;;7.09;100.00
12349;BME280;5974;42.710;27.258;2023-12-14T04:43:48;99451.47;;;7.04;100.00
12349;BME280;5974;42.710;27.258;2023-12-14T04:46:15;99442.25;;;6.95;100.00
12349;BME280;5974;42.710;27.258;2023-12-14T04:48:42;99448.41;;;7.61;100.00
12349;BME280;5974;42.710;27.258;2023-12-14T04:51:11;99404.00;;;6.99;100.00
12349;BME280;5974;42.710;27.258;2023-12-14T04:53:39;99440.28;;;7.25;100.00
12349;BME280;5974;42.710;27.258;2023-12-14T04:56:09;99445.63;;;7.21;100.00
12349;BME280;5974;42.710;27.258;2023-12-14T04:58:38;99434.91;;;7.06;100.00
12349;BME280;5974;42.710;27.258;2023-12-14T05:01:05;99436.63;;;7.29;100.00
12349;BME280;5974;42.710;27.258;2023-12-14T05:03:32;99416.16;;;6.98;100.00
12349;BME280;5974;42.710;27.258;2023-12-14T05:05:59;99401.03;;;7.31;100.00
12349;BME280;5974;42.710;27.258;2023-12-14T05:08:26;99423.75;;;7.26;100.00
12349;BME280;5974;42.710;27.258;2023-12-14T05:10:53;99420.09;;;7.08;100.00
12349;BME280;5974;42.710;27.258;2023-12-14T05:13:20;99432.22;;;7.09;100.00
12349;BME280;5974;42.710;27.258;2023-12-14T05:15:48;99424.41;;;7.09;100.00
12349;BME280;5974;42.710;27.258;2023-12-14T05:18:15;99419.13;;;7.11;100.00
12349;BME280;5974;42.710;27.258;2023-12-14T05:20:41;99421.22;;;7.25;100.00
12349;BME280;5974;42.710;27.258;2023-12-14T05:23:08;99418.00;;;7.18;100.00
12349;BME280;5974;42.710;27.258;2023-12-14T05:25:35;99411.72;;;7.24;100.00
12349;BME280;5974;42.710;27.258;2023-12-14T05:28:02;99402.59;;;7.35;100.00
12349;BME280;5974;42.710;27.258;2023-12-14T05:30:29;99416.03;;;7.46;100.00
12349;BME280;5974;42.710;27.258;2023-12-14T05:32:57;99411.38;;;7.54;100.00
12349;BME280;5974;42.710;27.258;2023-12-14T05:35:24;99399.88;;;7.60;100.00
12349;BME280;5974;42.710;27.258;2023-12-14T05:37:51;99399.75;;;7.63;100.00
12349;BME280;5974;42.710;27.258;2023-12-14T05:40:18;99410.00;;;7.68;100.00
12349;BME280;5974;42.710;27.258;2023-12-14T05:42:44;99401.56;;;7.83;100.00
12349;BME280;5974;42.710;27.258;2023-12-14T05:45:11;99382.94;;;7.72;100.00
12349;BME280;5974;42.710;27.258;2023-12-14T05:47:38;99397.81;;;7.90;100.00
12349;BME280;5974;42.710;27.258;2023-12-14T05:50:08;99406.25;;;7.95;100.00
12349;BME280;5974;42.710;27.258;2023-12-14T05:52:35;99407.97;;;7.96;100.00
12349;BME280;5974;42.710;27.258;2023-12-14T05:55:03;99421.09;;;7.93;100.00
12349;BME280;5974;42.710;27.258;2023-12-14T05:57:30;99413.16;;;7.96;100.00
12349;BME280;5974;42.710;27.258;2023-12-14T05:59:57;99417.06;;;8.06;100.00
12349;BME280;5974;42.710;27.258;2023-12-14T06:02:23;99414.22;;;8.12;100.00
12349;BME280;5974;42.710;27.258;2023-12-14T06:04:50;99403.88;;;8.31;100.00
12349;BME280;5974;42.710;27.258;2023-12-14T06:07:18;99415.66;;;8.19;100.00
12349;BME280;5974;42.710;27.258;2023-12-14T06:09:45;99366.78;;;8.05;100.00
12349;BME280;5974;42.710;27.258;2023-12-14T06:12:12;99403.97;;;8.29;100.00
12349;BME280;5974;42.710;27.258;2023-12-14T06:14:39;99399.63;;;8.30;100.00
12349;BME280;5974;42.710;27.258;2023-12-14T06:17:06;99402.22;;;8.30;100.00
12349;BME280;5974;42.710;27.258;2023-12-14T06:19:32;99409.94;;;8.31;100.00
12349;BME280;5974;42.710;27.258;2023-12-14T06:21:59;99415.47;;;8.44;100.00
12349;BME280;5974;42.710;27.258;2023-12-14T06:24:27;99402.66;;;8.39;100.00
12349;BME280;5974;42.710;27.258;2023-12-14T06:26:54;99404.75;;;8.51;100.00
12349;BME280;5974;42.710;27.258;2023-12-14T06:29:21;99404.97;;;8.65;100.00
12349;BME280;5974;42.710;27.258;2023-12-14T06:31:48;99412.16;;;8.60;100.00
12349;BME280;5974;42.710;27.258;2023-12-14T06:34:15;99415.66;;;8.80;100.00
12349;BME280;5974;42.710;27.258;2023-12-14T06:36:42;99428.78;;;8.58;100.00
12349;BME280;5974;42.710;27.258;2023-12-14T06:39:09;99422.00;;;8.54;100.00
12349;BME280;5974;42.710;27.258;2023-12-14T06:41:37;99422.56;;;8.60;100.00
12349;BME280;5974;42.710;27.258;2023-12-14T06:44:04;99423.25;;;8.84;100.00
12349;BME280;5974;42.710;27.258;2023-12-14T06:46:31;99422.44;;;8.63;100.00
12349;BME280;5974;42.710;27.258;2023-12-14T06:48:58;99427.59;;;8.84;100.00
12349;BME280;5974;42.710;27.258;2023-12-14T06:51:25;99427.50;;;9.05;100.00
12349;BME280;5974;42.710;27.258;2023-12-14T06:53:52;99441.03;;;9.13;100.00
12349;BME280;5974;42.710;27.258;2023-12-14T06:56:18;99424.13;;;9.03;100.00
12349;BME280;5974;42.710;27.258;2023-12-14T06:58:47;99417.28;;;9.01;100.00
12349;BME280;5974;42.710;27.258;2023-12-14T07:01:15;99429.53;;;9.17;100.00
12349;BME280;5974;42.710;27.258;2023-12-14T07:03:43;99433.22;;;9.13;100.00
12349;BME280;5974;42.710;27.258;2023-12-14T07:06:12;99433.34;;;9.29;100.00
12349;BME280;5974;42.710;27.258;2023-12-14T07:08:39;99444.28;;;9.73;100.00
12349;BME280;5974;42.710;27.258;2023-12-14T07:11:06;99440.66;;;9.58;100.00
12349;BME280;5974;42.710;27.258;2023-12-14T07:13:32;99443.88;;;9.63;100.00
12349;BME280;5974;42.710;27.258;2023-12-14T07:16:05;99435.56;;;9.74;100.00
12349;BME280;5974;42.710;27.258;2023-12-14T07:18:33;99431.72;;;10.51;100.00
12349;BME280;5974;42.710;27.258;2023-12-14T07:21:00;99432.78;;;11.13;100.00
12349;BME280;5974;42.710;27.258;2023-12-14T07:23:27;99430.69;;;10.54;100.00
12349;BME280;5974;42.710;27.258;2023-12-14T07:25:53;99430.56;;;10.22;100.00
12349;BME280;5974;42.710;27.258;2023-12-14T07:28:21;99421.94;;;10.55;100.00
12349;BME280;5974;42.710;27.258;2023-12-14T07:30:48;99426.72;;;10.29;100.00
12349;BME280;5974;42.710;27.258;2023-12-14T07:33:16;99436.16;;;10.32;100.00
12349;BME280;5974;42.710;27.258;2023-12-14T07:35:43;99438.50;;;10.88;100.00
12349;BME280;5974;42.710;27.258;2023-12-14T07:38:09;99438.91;;;10.63;100.00
12349;BME280;5974;42.710;27.258;2023-12-14T07:40:36;99438.31;;;10.41;100.00
12349;BME280;5974;42.710;27.258;2023-12-14T07:43:04;99430.44;;;10.58;100.00
12349;BME280;5974;42.710;27.258;2023-12-14T07:45:30;99431.09;;;10.29;100.00
12349;BME280;5974;42.710;27.258;2023-12-14T07:47:57;99444.22;;;10.27;100.00
12349;BME280;5974;42.710;27.258;2023-12-14T07:50:26;99435.50;;;10.61;100.00
12349;BME280;5974;42.710;27.258;2023-12-14T07:52:53;99450.63;;;10.89;100.00
12349;BME280;5974;42.710;27.258;2023-12-14T07:55:20;99438.03;;;11.60;100.00
12349;BME280;5974;42.710;27.258;2023-12-14T07:57:47;99432.31;;;11.53;100.00
12349;BME280;5974;42.710;27.258;2023-12-14T08:00:15;99422.75;;;11.52;100.00
12349;BME280;5974;42.710;27.258;2023-12-14T08:02:41;99411.53;;;11.19;100.00
12349;BME280;5974;42.710;27.258;2023-12-14T08:05:08;99416.47;;;11.72;100.00
12349;BME280;5974;42.710;27.258;2023-12-14T08:07:37;99391.00;;;11.42;100.00
12349;BME280;5974;42.710;27.258;2023-12-14T08:10:04;99395.41;;;11.26;100.00
12349;BME280;5974;42.710;27.258;2023-12-14T08:12:31;99410.75;;;11.17;100.00
12349;BME280;5974;42.710;27.258;2023-12-14T08:14:58;99410.69;;;11.18;100.00
12349;BME280;5974;42.710;27.258;2023-12-14T08:17:24;99413.22;;;11.35;100.00
12349;BME280;5974;42.710;27.258;2023-12-14T08:19:53;99419.97;;;11.39;100.00
12349;BME280;5974;42.710;27.258;2023-12-14T08:22:20;99419.56;;;11.31;100.00
12349;BME280;5974;42.710;27.258;2023-12-14T08:24:49;99416.50;;;11.39;100.00
12349;BME280;5974;42.710;27.258;2023-12-14T08:27:15;99418.44;;;11.51;100.00
12349;BME280;5974;42.710;27.258;2023-12-14T08:29:42;99417.69;;;11.65;100.00
12349;BME280;5974;42.710;27.258;2023-12-14T08:32:10;99405.34;;;12.12;100.00
12349;BME280;5974;42.710;27.258;2023-12-14T08:34:37;99401.28;;;11.92;100.00
12349;BME280;5974;42.710;27.258;2023-12-14T08:37:04;99397.72;;;11.93;100.00
12349;BME280;5974;42.710;27.258;2023-12-14T08:39:31;99411.25;;;12.60;100.00
12349;BME280;5974;42.710;27.258;2023-12-14T08:41:59;99406.13;;;12.72;100.00
12349;BME280;5974;42.710;27.258;2023-12-14T08:44:26;99399.28;;;12.12;100.00
12349;BME280;5974;42.710;27.258;2023-12-14T08:46:52;99400.84;;;12.30;100.00
12349;BME280;5974;42.710;27.258;2023-12-14T08:49:19;99396.00;;;12.08;100.00
12349;BME280;5974;42.710;27.258;2023-12-14T08:51:46;99386.97;;;12.28;100.00
12349;BME280;5974;42.710;27.258;2023-12-14T08:54:13;99379.72;;;12.75;100.00
12349;BME280;5974;42.710;27.258;2023-12-14T08:56:40;99384.84;;;12.77;100.00
12349;BME280;5974;42.710;27.258;2023-12-14T08:59:08;99384.84;;;12.63;100.00
12349;BME280;5974;42.710;27.258;2023-12-14T09:01:35;99389.44;;;12.59;100.00
12349;BME280;5974;42.710;27.258;2023-12-14T09:04:00;99373.16;;;12.68;100.00
12349;BME280;5974;42.710;27.258;2023-12-14T09:06:27;99380.88;;;13.40;100.00
12349;BME280;5974;42.710;27.258;2023-12-14T09:08:54;99367.38;;;13.86;100.00
12349;BME280;5974;42.710;27.258;2023-12-14T09:11:21;99360.81;;;14.18;100.00
12349;BME280;5974;42.710;27.258;2023-12-14T09:13:47;99359.81;;;13.94;100.00
12349;BME280;5974;42.710;27.258;2023-12-14T09:16:17;99366.88;;;14.06;100.00
12349;BME280;5974;42.710;27.258;2023-12-14T09:18:44;99350.97;;;14.72;100.00
12349;BME280;5974;42.710;27.258;2023-12-14T09:21:11;99340.25;;;14.62;100.00
12349;BME280;5974;42.710;27.258;2023-12-14T09:23:37;99330.41;;;14.90;100.00
12349;BME280;5974;42.710;27.258;2023-12-14T09:26:06;99329.47;;;14.15;100.00
12349;BME280;5974;42.710;27.258;2023-12-14T09:28:32;99338.13;;;14.68;100.00
12349;BME280;5974;42.710;27.258;2023-12-14T09:30:59;99340.09;;;14.89;100.00
12349;BME280;5974;42.710;27.258;2023-12-14T09:33:28;99348.00;;;14.77;100.00
12349;BME280;5974;42.710;27.258;2023-12-14T09:35:55;99351.69;;;14.24;100.00
12349;BME280;5974;42.710;27.258;2023-12-14T09:38:22;99340.16;;;13.87;100.00
12349;BME280;5974;42.710;27.258;2023-12-14T09:40:49;99336.13;;;13.81;100.00
12349;BME280;5974;42.710;27.258;2023-12-14T09:43:16;99336.84;;;14.10;100.00
12349;BME280;5974;42.710;27.258;2023-12-14T09:45:42;99347.16;;;14.26;100.00
12349;BME280;5974;42.710;27.258;2023-12-14T09:48:11;99341.94;;;14.51;100.00
12349;BME280;5974;42.710;27.258;2023-12-14T09:50:40;99330.56;;;14.50;100.00
12349;BME280;5974;42.710;27.258;2023-12-14T09:53:07;99323.50;;;14.26;100.00
12349;BME280;5974;42.710;27.258;2023-12-14T09:55:34;99312.50;;;14.33;100.00
12349;BME280;5974;42.710;27.258;2023-12-14T09:58:01;99314.56;;;14.66;100.00
12349;BME280;5974;42.710;27.258;2023-12-14T10:00:35;99321.09;;;14.35;100.00
12349;BME280;5974;42.710;27.258;2023-12-14T10:03:21;99318.13;;;14.15;100.00
12349;BME280;5974;42.710;27.258;2023-12-14T10:05:50;99319.81;;;14.66;100.00
12349;BME280;5974;42.710;27.258;2023-12-14T10:08:17;99325.22;;;14.39;100.00
12349;BME280;5974;42.710;27.258;2023-12-14T10:10:45;99329.59;;;14.13;100.00
12349;BME280;5974;42.710;27.258;2023-12-14T10:13:14;99315.09;;;14.58;100.00
12349;BME280;5974;42.710;27.258;2023-12-14T10:15:41;99297.44;;;14.60;100.00
12349;BME280;5974;42.710;27.258;2023-12-14T10:18:08;99303.59;;;14.85;100.00
12349;BME280;5974;42.710;27.258;2023-12-14T10:20:35;99315.00;;;15.09;100.00
12349;BME280;5974;42.710;27.258;2023-12-14T10:23:05;99317.50;;;15.10;100.00
12349;BME280;5974;42.710;27.258;2023-12-14T10:25:32;99298.84;;;15.50;100.00
12349;BME280;5974;42.710;27.258;2023-12-14T10:27:59;99306.31;;;15.43;100.00
12349;BME280;5974;42.710;27.258;2023-12-14T10:30:28;99300.41;;;15.52;100.00
12349;BME280;5974;42.710;27.258;2023-12-14T10:32:55;99299.38;;;15.66;100.00
12349;BME280;5974;42.710;27.258;2023-12-14T10:35:22;99304.50;;;15.20;100.00
12349;BME280;5974;42.710;27.258;2023-12-14T10:37:51;99315.84;;;15.09;100.00
12349;BME280;5974;42.710;27.258;2023-12-14T10:40:20;99295.09;;;15.05;100.00
12349;BME280;5974;42.710;27.258;2023-12-14T10:42:47;99290.81;;;15.28;100.00
12349;BME280;5974;42.710;27.258;2023-12-14T10:45:16;99287.59;;;14.75;100.00
12349;BME280;5974;42.710;27.258;2023-12-14T10:47:46;99300.63;;;14.77;100.00
12349;BME280;5974;42.710;27.258;2023-12-14T10:50:13;99297.44;;;15.44;100.00
12349;BME280;5974;42.710;27.258;2023-12-14T10:52:41;99287.88;;;15.67;100.00
12349;BME280;5974;42.710;27.258;2023-12-14T10:55:11;99291.69;;;15.39;100.00
12349;BME280;5974;42.710;27.258;2023-12-14T10:57:43;99287.84;;;15.91;100.00
12349;BME280;5974;42.710;27.258;2023-12-14T11:00:10;99279.28;;;16.22;100.00
12349;BME280;5974;42.710;27.258;2023-12-14T11:02:40;99291.00;;;15.72;100.00
12349;BME280;5974;42.710;27.258;2023-12-14T11:05:07;99287.03;;;15.90;100.00
12349;BME280;5974;42.710;27.258;2023-12-14T11:07:48;99289.03;;;15.87;100.00
12349;BME280;5974;42.710;27.258;2023-12-14T11:10:20;99278.75;;;15.60;100.00
12349;BME280;5974;42.710;27.258;2023-12-14T11:12:57;99267.41;;;14.99;100.00
12349;BME280;5974;42.710;27.258;2023-12-14T11:15:28;99263.63;;;15.03;100.00
12349;BME280;5974;42.710;27.258;2023-12-14T11:18:23;99279.28;;;14.69;100.00
12349;BME280;5974;42.710;27.258;2023-12-14T11:20:53;99271.09;;;14.73;100.00
12349;BME280;5974;42.710;27.258;2023-12-14T11:23:35;99276.56;;;14.70;100.00
12349;BME280;5974;42.710;27.258;2023-12-14T11:26:03;99272.13;;;14.71;100.00
12349;BME280;5974;42.710;27.258;2023-12-14T11:28:33;99265.25;;;14.81;100.00
12349;BME280;5974;42.710;27.258;2023-12-14T11:31:01;99258.50;;;14.53;100.00
12349;BME280;5974;42.710;27.258;2023-12-14T11:33:32;99260.59;;;14.97;100.00
12349;BME280;5974;42.710;27.258;2023-12-14T11:36:00;99262.31;;;15.33;100.00
12349;BME280;5974;42.710;27.258;2023-12-14T11:38:29;99261.84;;;15.28;100.00
12349;BME280;5974;42.710;27.258;2023-12-14T11:40:56;99258.91;;;15.43;100.00
12349;BME280;5974;42.710;27.258;2023-12-14T11:43:22;99263.56;;;15.40;100.00
12349;BME280;5974;42.710;27.258;2023-12-14T11:45:53;99218.41;;;15.44;100.00
12349;BME280;5974;42.710;27.258;2023-12-14T11:48:21;99251.34;;;16.19;100.00
12349;BME280;5974;42.710;27.258;2023-12-14T11:50:48;99268.22;;;16.06;100.00
12349;BME280;5974;42.710;27.258;2023-12-14T11:53:15;99259.56;;;15.93;100.00
12349;BME280;5974;42.710;27.258;2023-12-14T11:55:42;99261.22;;;15.83;100.00
12349;BME280;5974;42.710;27.258;2023-12-14T11:58:12;99254.47;;;16.69;100.00
12349;BME280;5974;42.710;27.258;2023-12-14T12:00:40;99250.69;;;17.05;100.00
12349;BME280;5974;42.710;27.258;2023-12-14T12:03:10;99245.84;;;16.45;100.00
12349;BME280;5974;42.710;27.258;2023-12-14T12:05:38;99251.09;;;16.34;100.00
12349;BME280;5974;42.710;27.258;2023-12-14T12:08:06;99244.28;;;15.39;100.00
12349;BME280;5974;42.710;27.258;2023-12-14T12:10:33;99268.78;;;15.52;100.00
12349;BME280;5974;42.710;27.258;2023-12-14T12:13:04;99247.84;;;16.08;100.00
12349;BME280;5974;42.710;27.258;2023-12-14T12:15:31;99257.13;;;16.69;100.00
12349;BME280;5974;42.710;27.258;2023-12-14T12:18:03;99267.88;;;16.21;100.00
12349;BME280;5974;42.710;27.258;2023-12-14T12:20:31;99253.66;;;15.78;100.00
12349;BME280;5974;42.710;27.258;2023-12-14T12:22:57;99251.66;;;16.04;100.00
12349;BME280;5974;42.710;27.258;2023-12-14T12:25:24;99234.91;;;16.38;100.00
12349;BME280;5974;42.710;27.258;2023-12-14T12:27:53;99234.19;;;16.80;100.00
12349;BME280;5974;42.710;27.258;2023-12-14T12:30:19;99246.28;;;17.26;100.00
12349;BME280;5974;42.710;27.258;2023-12-14T12:32:46;99225.09;;;16.51;100.00
12349;BME280;5974;42.710;27.258;2023-12-14T12:35:13;99242.53;;;15.75;100.00
12349;BME280;5974;42.710;27.258;2023-12-14T12:37:41;99245.50;;;15.70;100.00
12349;BME280;5974;42.710;27.258;2023-12-14T12:40:09;99242.47;;;16.20;100.00
12349;BME280;5974;42.710;27.258;2023-12-14T12:42:36;99247.81;;;15.51;100.00
12349;BME280;5974;42.710;27.258;2023-12-14T12:45:04;99254.31;;;15.10;100.00
12349;BME280;5974;42.710;27.258;2023-12-14T12:47:31;99268.59;;;14.95;100.00
12349;BME280;5974;42.710;27.258;2023-12-14T12:49:58;99261.13;;;14.89;100.00
12349;BME280;5974;42.710;27.258;2023-12-14T12:52:25;99257.69;;;15.12;100.00
12349;BME280;5974;42.710;27.258;2023-12-14T12:54:53;99263.22;;;15.20;100.00
12349;BME280;5974;42.710;27.258;2023-12-14T12:57:20;99253.19;;;14.65;100.00